Aviation Digital Data Service (ADDS)

Output produced by METARs form (1554 UTC 23 April 2017)
found at http://www.aviationweather.gov/adds/metars/
 
KDEN 231502Z 2315/2418 24010KT P6SM SCT150 BKN240 
     FM231700 15006KT P6SM FEW150 BKN240 
     FM232300 28011KT P6SM SCT120 BKN220 
     FM240100 15007KT P6SM BKN110 BKN200 
     FM240400 21011KT P6SM BKN250 
     FM240900 35012KT P6SM FEW140 BKN220 
     FM241300 VRB05KT P6SM FEW120 SCT220